POI weather

Public forecast

Using degrees Celsius for public forecast. Weather courtesy of forecast.io.

Current aviation weather report (METAR) for Capitan Nicolas Rojas Airport

Report is more than 2 hours old.

Retrieved 2020/08/14 12:00 UTC (5 hours ago):

SLPO 141200Z 00000KT 9999 NSC M01/M08 Q1033

Closest aviation forecast (TAF) to Capitan Nicolas Rojas Airport

Closest forecast is Alcantarí Airport, 37.1 nm (68.7 km) ENE. Retrieved 2020/08/14 12:21 UTC (5 hours ago):

TAF SLAL 141000Z 1412/1512 00000KT 9999 NSC TX23/1419Z TN04/1511Z BECMG 1414/1416 34015KT TEMPO 1419/1421 30015G25KT BECMG 1502/1504 00000KT